Main page
METAR-TAF:

METAR-TAF

Airports :

Glasgow Airport

Glasgow, Scotland

latitude: 55-52N, longitude: 004-26W, elevation: 8 m

Current weather observation

The report was made 18 minutes ago, at 03:20 UTC
Wind 4 kt from the West/Southwest
Temperature 1°C
Humidity 100%
Pressure 1017 hPa
Visibility 10 km or more

METAR: EGPF 230320Z AUTO 25004KT 9999 NCD 01/01 Q1017

Time: 04:38 (03:38 UTC)

Forecast

The report was made 4 hours and 40 minutes ago, at 22:58 UTC
Forecast valid from 23 at 00 UTC to 23 at 24 UTC
Wind 6 kt from the West
Visibility 10 km or more
Scattered clouds at a height of 3500 ft
Probability 30% :
Temporary
from 23 at 12 UTC to 23 at 18 UTC
Visibility: 7000 m
rain showers

TAF: EGPF 222258Z 2300/2324 27006KT 9999 SCT035 PROB30 TEMPO 2312/2318 7000 SHRA

Weather observations and forecasts of more than 4000 airports (METAR and TAF reports).

The available stations are represented by yellow and red dots on the map.

Hover mouse over dot to see the name of the station.

Then click to see weather observations and forecasts.

To change the map : click on the green buttons with a black cross to zoom in, on the green button with a dash to zoom out, or on the green arrows for adjacent maps.


METAR-TAF: